createdAt,value
2022-08-01T00:00:02.455Z,1.25
2022-08-01T00:02:29.494Z,1.60
2022-08-01T00:04:56.231Z,1.30
2022-08-01T00:07:22.909Z,1.38
2022-08-01T00:09:49.674Z,1.05
2022-08-01T00:12:16.250Z,1.40
2022-08-01T00:14:42.885Z,1.10
2022-08-01T00:17:09.481Z,1.10
2022-08-01T00:19:36.123Z,1.30
2022-08-01T00:22:02.953Z,1.40
2022-08-01T00:24:29.838Z,1.00
2022-08-01T00:26:56.430Z,1.27
2022-08-01T00:30:13.538Z,1.00
2022-08-01T00:32:09.841Z,1.20
2022-08-01T00:34:36.522Z,1.15
2022-08-01T00:37:03.393Z,1.23
2022-08-01T00:39:30.139Z,1.25
2022-08-01T00:41:59.710Z,1.33
2022-08-01T00:44:27.205Z,1.20
2022-08-01T00:46:53.810Z,1.30
2022-08-01T00:49:20.561Z,1.40
2022-08-01T00:51:47.429Z,1.00
2022-08-01T00:54:16.590Z,1.10
2022-08-01T00:56:43.866Z,1.33
2022-08-01T00:59:14.019Z,1.00
2022-08-01T01:01:46.514Z,1.20
2022-08-01T01:04:13.693Z,1.25
2022-08-01T01:06:51.743Z,1.13
2022-08-01T01:09:36.050Z,1.30
2022-08-01T01:12:16.560Z,1.20
2022-08-01T01:15:00.708Z,1.50
2022-08-01T01:17:50.329Z,1.20
2022-08-01T01:20:21.658Z,1.05
2022-08-01T01:22:50.982Z,1.20
2022-08-01T01:25:45.154Z,1.20
2022-08-01T01:28:33.362Z,1.25
2022-08-01T01:31:01.945Z,1.38
2022-08-01T01:33:32.174Z,1.20
2022-08-01T01:36:02.079Z,1.50
2022-08-01T01:38:34.689Z,1.40
2022-08-01T01:41:03.210Z,1.20
2022-08-01T01:43:33.384Z,1.15
2022-08-01T01:46:01.737Z,1.10
2022-08-01T01:48:29.866Z,1.17
2022-08-01T01:50:57.614Z,1.30
2022-08-01T01:53:24.798Z,1.33
2022-08-01T01:55:54.314Z,1.30
2022-08-01T01:58:22.027Z,1.35
2022-08-01T02:00:50.613Z,1.38
2022-08-01T02:03:19.462Z,1.33
2022-08-01T02:05:47.541Z,1.17
2022-08-01T02:08:17.324Z,1.23
2022-08-01T02:11:06.087Z,1.50
2022-08-01T02:13:34.767Z,1.42
2022-08-01T02:16:02.404Z,1.23
2022-08-01T02:18:29.144Z,1.65
2022-08-01T02:20:58.514Z,1.40
2022-08-01T02:23:28.057Z,1.25
2022-08-01T02:26:10.217Z,1.40
2022-08-01T02:28:56.784Z,1.15
2022-08-01T02:31:23.817Z,1.70
2022-08-01T02:34:12.454Z,1.70
2022-08-01T02:36:39.579Z,1.30
2022-08-01T02:39:15.776Z,1.25
2022-08-01T02:41:50.912Z,1.42
2022-08-01T02:44:28.574Z,1.70
2022-08-01T02:47:03.070Z,1.38
2022-08-01T02:49:34.033Z,1.33
2022-08-01T02:52:05.039Z,1.42
2022-08-01T02:54:33.426Z,1.45
2022-08-01T02:57:01.894Z,1.60
2022-08-01T02:59:30.662Z,1.50
2022-08-01T03:02:00.056Z,1.47
2022-08-01T03:04:28.244Z,1.40
2022-08-01T03:06:59.261Z,1.50
2022-08-01T03:09:29.411Z,1.37
2022-08-01T03:11:59.223Z,1.50
2022-08-01T03:14:27.437Z,1.70
2022-08-01T03:16:54.943Z,1.60
2022-08-01T03:19:25.121Z,1.60
2022-08-01T03:21:53.032Z,1.30
2022-08-01T03:24:22.427Z,1.57
2022-08-01T03:26:49.628Z,1.70
2022-08-01T03:29:23.657Z,1.53
2022-08-01T03:31:51.103Z,1.87
2022-08-01T03:34:18.695Z,1.67
2022-08-01T03:37:02.255Z,1.40
2022-08-01T03:39:34.197Z,1.40
2022-08-01T03:42:08.715Z,1.33
2022-08-01T03:44:39.893Z,1.70
2022-08-01T03:47:09.622Z,1.70
2022-08-01T03:49:43.495Z,1.60
2022-08-01T03:52:10.945Z,1.77
2022-08-01T03:54:42.998Z,1.30
2022-08-01T03:57:36.225Z,1.50
2022-08-01T04:00:00.025Z,1.70
2022-08-01T04:02:28.158Z,1.40
2022-08-01T04:04:55.516Z,1.60
2022-08-01T04:07:30.174Z,1.50
2022-08-01T04:09:56.888Z,1.50
2022-08-01T04:12:23.812Z,1.60
2022-08-01T04:14:50.811Z,1.60
2022-08-01T04:17:17.851Z,1.50
2022-08-01T04:19:45.660Z,1.60
2022-08-01T04:22:14.875Z,1.80
2022-08-01T04:24:43.223Z,1.60
2022-08-01T04:27:15.350Z,1.43
2022-08-01T04:29:43.099Z,1.90
2022-08-01T04:32:13.538Z,1.87
2022-08-01T04:34:42.678Z,1.63
2022-08-01T04:37:11.233Z,1.90
2022-08-01T04:39:50.710Z,1.93
2022-08-01T04:42:18.441Z,1.50
2022-08-01T04:44:53.039Z,1.83
2022-08-01T04:47:20.362Z,1.50
2022-08-01T04:49:48.567Z,1.60
2022-08-01T04:52:22.978Z,2.00
2022-08-01T04:54:51.332Z,1.73
2022-08-01T04:57:17.931Z,1.40
2022-08-01T04:59:45.207Z,1.65
2022-08-01T05:02:14.056Z,1.90
2022-08-01T05:04:42.719Z,1.80
2022-08-01T05:07:10.442Z,1.60
2022-08-01T05:09:37.983Z,1.35
2022-08-01T05:12:06.689Z,1.50
2022-08-01T05:14:34.207Z,1.48
2022-08-01T05:17:04.048Z,1.30
2022-08-01T05:19:34.554Z,1.60
2022-08-01T05:22:02.515Z,1.40
2022-08-01T05:24:29.431Z,1.65
2022-08-01T05:26:58.507Z,1.38
2022-08-01T05:29:26.147Z,1.60
2022-08-01T05:31:53.652Z,1.73
2022-08-01T05:34:20.998Z,1.30
2022-08-01T05:36:48.114Z,1.60
2022-08-01T05:39:15.162Z,1.92
2022-08-01T05:41:42.558Z,2.33
2022-08-01T05:44:10.375Z,2.47
2022-08-01T05:46:37.272Z,2.10
2022-08-01T05:49:05.589Z,2.10
2022-08-01T05:51:32.557Z,1.88
2022-08-01T05:53:59.871Z,2.00
2022-08-01T05:56:30.495Z,1.92
2022-08-01T05:58:58.778Z,1.80
2022-08-01T06:01:25.403Z,1.73
2022-08-01T06:03:53.204Z,1.73
2022-08-01T06:06:19.770Z,1.63
2022-08-01T06:08:52.851Z,1.50
2022-08-01T06:11:19.559Z,1.40
2022-08-01T06:13:48.857Z,1.35
2022-08-01T06:16:16.719Z,1.52
2022-08-01T06:18:43.703Z,1.58
2022-08-01T06:21:10.307Z,1.35
2022-08-01T06:23:37.100Z,1.55
2022-08-01T06:26:03.881Z,1.30
2022-08-01T06:28:30.811Z,1.60
2022-08-01T06:30:59.445Z,1.40
2022-08-01T06:33:26.788Z,1.40
2022-08-01T06:35:53.483Z,1.42
2022-08-01T06:38:20.098Z,1.45
2022-08-01T06:40:46.901Z,1.33
2022-08-01T06:43:13.628Z,1.75
2022-08-01T06:45:41.181Z,1.70
2022-08-01T06:48:07.857Z,1.50
2022-08-01T06:50:36.642Z,1.70
2022-08-01T06:53:03.911Z,1.60
2022-08-01T06:55:30.572Z,1.30
2022-08-01T06:57:57.167Z,1.40
2022-08-01T07:00:25.608Z,1.98
2022-08-01T07:02:57.410Z,1.30
2022-08-01T07:05:24.902Z,1.80
2022-08-01T07:07:51.612Z,1.65
2022-08-01T07:10:18.485Z,1.60
2022-08-01T07:12:45.115Z,1.30
2022-08-01T07:15:12.413Z,1.52
2022-08-01T07:17:43.476Z,1.42
2022-08-01T07:20:16.112Z,1.85
2022-08-01T07:22:43.434Z,1.63
2022-08-01T07:25:10.546Z,1.67
2022-08-01T07:27:38.389Z,1.88
2022-08-01T07:30:06.255Z,1.70
2022-08-01T07:32:32.981Z,1.60
2022-08-01T07:34:59.606Z,1.65
2022-08-01T07:37:44.305Z,1.60
2022-08-01T07:40:14.395Z,1.50
2022-08-01T07:42:44.306Z,1.77
2022-08-01T07:45:12.766Z,1.90
2022-08-01T07:47:39.432Z,1.63
2022-08-01T07:50:07.336Z,1.85
2022-08-01T07:52:34.026Z,2.10
2022-08-01T07:55:00.735Z,1.60
2022-08-01T07:57:27.328Z,1.80
2022-08-01T07:59:53.924Z,1.80
2022-08-01T08:02:20.566Z,1.90
2022-08-01T08:04:49.312Z,1.83
2022-08-01T08:07:16.420Z,1.75
2022-08-01T08:09:43.028Z,1.90
2022-08-01T08:12:10.300Z,2.10
2022-08-01T08:14:37.492Z,2.03
2022-08-01T08:17:05.038Z,2.20
2022-08-01T08:19:37.883Z,2.20
2022-08-01T08:22:06.858Z,2.28
2022-08-01T08:24:33.724Z,2.08
2022-08-01T08:27:02.152Z,2.30
2022-08-01T08:29:32.731Z,2.60
2022-08-01T08:32:00.640Z,2.60
2022-08-01T08:34:29.024Z,2.65
2022-08-01T08:36:57.043Z,2.72
2022-08-01T08:39:25.614Z,3.00
2022-08-01T08:41:52.397Z,2.78
2022-08-01T08:44:20.982Z,3.05
2022-08-01T08:46:49.879Z,2.70
2022-08-01T08:49:22.850Z,2.47
2022-08-01T08:51:51.754Z,3.25
2022-08-01T08:54:21.610Z,2.88
2022-08-01T08:56:48.852Z,3.08
2022-08-01T08:59:15.581Z,3.08
2022-08-01T09:01:43.034Z,3.03
2022-08-01T09:04:10.278Z,2.92
2022-08-01T09:06:37.107Z,2.67
2022-08-01T09:09:05.282Z,2.53
2022-08-01T09:11:32.231Z,2.90
2022-08-01T09:14:02.823Z,2.60
2022-08-01T09:16:29.744Z,2.50
2022-08-01T09:19:40.170Z,2.50
2022-08-01T09:22:08.281Z,2.50
2022-08-01T09:24:36.366Z,2.53
2022-08-01T09:27:22.040Z,2.47
2022-08-01T09:30:01.999Z,2.45
2022-08-01T09:32:35.800Z,2.67
2022-08-01T09:35:29.917Z,2.58
2022-08-01T09:38:17.923Z,2.60
2022-08-01T09:40:49.947Z,2.60
2022-08-01T09:43:18.111Z,2.60
2022-08-01T09:45:49.210Z,2.72
2022-08-01T09:48:17.670Z,2.58
2022-08-01T09:50:46.903Z,2.40
2022-08-01T09:53:29.422Z,2.40
2022-08-01T09:56:12.831Z,2.25
2022-08-01T09:58:59.399Z,2.63
2022-08-01T10:01:36.642Z,2.13
2022-08-01T10:04:20.298Z,2.15
2022-08-01T10:06:55.544Z,2.10
2022-08-01T10:09:35.834Z,2.10
2022-08-01T10:12:07.840Z,2.13
2022-08-01T10:14:36.957Z,2.40
2022-08-01T10:17:05.297Z,2.10
2022-08-01T10:19:33.564Z,2.20
2022-08-01T10:22:01.256Z,2.03
2022-08-01T10:24:31.019Z,2.30
2022-08-01T10:27:12.191Z,2.08
2022-08-01T10:30:20.119Z,2.30
2022-08-01T10:32:53.439Z,2.00
2022-08-01T10:35:46.011Z,2.33
2022-08-01T10:38:10.692Z,2.38
2022-08-01T10:40:42.295Z,1.95
2022-08-01T10:43:10.862Z,2.20
2022-08-01T10:45:37.549Z,2.05
2022-08-01T10:48:11.817Z,1.88
2022-08-01T10:50:48.432Z,1.90
2022-08-01T10:53:24.506Z,2.17
2022-08-01T10:56:01.388Z,2.03
2022-08-01T10:58:42.744Z,1.95
2022-08-01T11:01:27.773Z,2.10
2022-08-01T11:04:02.761Z,2.30
2022-08-01T11:06:33.629Z,2.08
2022-08-01T11:09:05.950Z,1.88
2022-08-01T11:11:37.644Z,1.88
2022-08-01T11:14:08.115Z,1.98
2022-08-01T11:16:38.704Z,1.80
2022-08-01T11:19:09.393Z,2.20
2022-08-01T11:21:57.823Z,2.30
2022-08-01T11:24:50.624Z,2.03
2022-08-01T11:27:33.751Z,2.38
2022-08-01T11:30:09.387Z,2.10
2022-08-01T11:33:11.442Z,2.05
2022-08-01T11:35:58.752Z,2.00
2022-08-01T11:38:31.631Z,2.20
2022-08-01T11:41:37.227Z,2.10
2022-08-01T11:44:14.519Z,1.88
2022-08-01T11:46:49.993Z,2.00
2022-08-01T11:49:29.046Z,1.92
2022-08-01T11:52:06.620Z,1.80
2022-08-01T11:54:43.977Z,2.00
2022-08-01T11:57:14.238Z,1.90
2022-08-01T12:00:02.867Z,1.70
2022-08-01T12:02:33.202Z,2.20
2022-08-01T12:05:19.197Z,1.83
2022-08-01T12:07:49.987Z,1.90
2022-08-01T12:10:18.607Z,1.90
2022-08-01T12:12:46.707Z,2.00
2022-08-01T12:15:14.128Z,1.80
2022-08-01T12:17:57.497Z,1.77
2022-08-01T12:20:30.326Z,2.00
2022-08-01T12:22:58.590Z,2.00
2022-08-01T12:25:25.283Z,1.95
2022-08-01T12:27:56.207Z,1.90
2022-08-01T12:30:25.097Z,2.17
2022-08-01T12:32:53.283Z,1.85
2022-08-01T12:35:25.739Z,1.80
2022-08-01T12:37:55.415Z,2.03
2022-08-01T12:40:25.047Z,2.03
2022-08-01T12:42:53.911Z,2.22
2022-08-01T12:45:24.706Z,2.00
2022-08-01T12:47:53.140Z,2.00
2022-08-01T12:50:26.296Z,1.70
2022-08-01T12:52:53.310Z,2.00
2022-08-01T12:55:21.863Z,2.05
2022-08-01T12:57:53.959Z,2.03
2022-08-01T13:00:27.199Z,2.00
2022-08-01T13:03:04.187Z,1.90
2022-08-01T13:05:43.219Z,2.08
2022-08-01T13:08:21.878Z,1.90
2022-08-01T13:10:49.494Z,2.30
2022-08-01T13:13:27.811Z,2.28
2022-08-01T13:16:06.164Z,2.13
2022-08-01T13:18:34.434Z,1.80
2022-08-01T13:21:12.703Z,2.08
2022-08-01T13:24:02.927Z,2.17
2022-08-01T13:26:45.316Z,2.20
2022-08-01T13:29:17.685Z,2.20
2022-08-01T13:31:45.518Z,2.13
2022-08-01T13:34:12.539Z,2.30
2022-08-01T13:36:41.235Z,2.03
2022-08-01T13:39:29.475Z,2.10
2022-08-01T13:41:56.059Z,2.10
2022-08-01T13:44:22.678Z,2.00
2022-08-01T13:46:51.496Z,2.03
2022-08-01T13:49:18.944Z,2.05
2022-08-01T13:51:47.194Z,2.15
2022-08-01T13:54:13.815Z,2.22
2022-08-01T13:56:40.387Z,2.45
2022-08-01T13:59:07.468Z,2.38
2022-08-01T14:01:34.947Z,2.20
2022-08-01T14:04:02.974Z,2.45
2022-08-01T14:06:30.486Z,2.50
2022-08-01T14:08:57.232Z,2.63
2022-08-01T14:11:24.451Z,2.63
2022-08-01T14:13:51.106Z,2.70
2022-08-01T14:16:18.407Z,2.50
2022-08-01T14:18:45.098Z,2.30
2022-08-01T14:21:11.878Z,2.70
2022-08-01T14:23:39.099Z,2.63
2022-08-01T14:26:11.564Z,2.63
2022-08-01T14:28:39.832Z,2.60
2022-08-01T14:31:09.646Z,2.60
2022-08-01T14:33:37.316Z,3.10
2022-08-01T14:36:20.681Z,2.95
2022-08-01T14:38:51.023Z,3.05
2022-08-01T14:41:17.692Z,3.22
2022-08-01T14:43:44.683Z,3.30
2022-08-01T14:46:13.208Z,3.50
2022-08-01T14:48:40.029Z,3.22
2022-08-01T14:51:08.148Z,3.20
2022-08-01T14:53:38.523Z,3.00
2022-08-01T14:56:06.329Z,3.25
2022-08-01T14:58:33.635Z,3.30
2022-08-01T15:01:00.354Z,2.92
2022-08-01T15:03:27.347Z,3.05
2022-08-01T15:05:54.004Z,3.10
2022-08-01T15:08:20.614Z,2.88
2022-08-01T15:10:47.191Z,3.10
2022-08-01T15:13:13.809Z,2.97
2022-08-01T15:15:40.373Z,3.20
2022-08-01T15:18:06.954Z,3.47
2022-08-01T15:20:33.952Z,3.60
2022-08-01T15:23:00.726Z,3.70
2022-08-01T15:25:41.334Z,3.60
2022-08-01T15:28:10.345Z,3.50
2022-08-01T15:30:37.206Z,3.55
2022-08-01T15:33:03.941Z,3.75
2022-08-01T15:35:30.625Z,3.35
2022-08-01T15:37:57.225Z,3.75
2022-08-01T15:40:24.365Z,3.88
2022-08-01T15:42:51.107Z,3.45
2022-08-01T15:45:45.787Z,3.83
2022-08-01T15:48:06.658Z,3.35
2022-08-01T15:50:33.290Z,3.78
2022-08-01T15:52:59.938Z,3.60
2022-08-01T15:55:26.597Z,3.60
2022-08-01T15:57:53.169Z,3.67
2022-08-01T16:00:19.906Z,3.90
2022-08-01T16:02:47.223Z,3.80
2022-08-01T16:05:17.113Z,3.58
2022-08-01T16:07:59.413Z,3.25
2022-08-01T16:10:29.047Z,3.88
2022-08-01T16:12:55.680Z,2.97
2022-08-01T16:15:22.945Z,3.33
2022-08-01T16:18:03.468Z,3.42
2022-08-01T16:20:30.105Z,3.00
2022-08-01T16:22:56.709Z,3.00
2022-08-01T16:25:23.371Z,2.83
2022-08-01T16:27:50.025Z,2.95
2022-08-01T16:30:16.807Z,2.60
2022-08-01T16:32:47.768Z,2.78
2022-08-01T16:35:18.686Z,2.70
2022-08-01T16:37:45.411Z,2.65
2022-08-01T16:40:12.336Z,2.72
2022-08-01T16:42:38.935Z,3.03
2022-08-01T16:45:12.738Z,2.70
2022-08-01T16:47:41.248Z,2.92
2022-08-01T16:50:09.400Z,3.17
2022-08-01T16:52:42.144Z,2.40
2022-08-01T16:55:10.234Z,2.50
2022-08-01T16:57:38.161Z,2.70
2022-08-01T17:00:21.306Z,2.80
2022-08-01T17:02:49.372Z,2.95
2022-08-01T17:05:15.994Z,3.35
2022-08-01T17:07:42.599Z,3.30
2022-08-01T17:10:10.179Z,3.22
2022-08-01T17:12:36.870Z,3.28
2022-08-01T17:15:04.151Z,2.90
2022-08-01T17:17:30.741Z,3.10
2022-08-01T17:19:57.378Z,2.72
2022-08-01T17:22:23.964Z,2.90
2022-08-01T17:24:51.919Z,3.28
2022-08-01T17:27:19.637Z,3.00
2022-08-01T17:29:46.707Z,3.20
2022-08-01T17:32:14.045Z,3.05
2022-08-01T17:34:42.105Z,2.80
2022-08-01T17:37:09.321Z,3.30
2022-08-01T17:39:38.629Z,2.90
2022-08-01T17:42:07.550Z,3.13
2022-08-01T17:44:34.203Z,2.90
2022-08-01T17:47:00.820Z,2.80
2022-08-01T17:49:52.377Z,2.67
2022-08-01T17:52:14.065Z,3.20
2022-08-01T17:54:41.711Z,2.95
2022-08-01T17:57:08.845Z,2.90
2022-08-01T17:59:35.837Z,3.03
2022-08-01T18:02:02.457Z,2.70
2022-08-01T18:04:31.338Z,3.20
2022-08-01T18:07:00.803Z,3.20
2022-08-01T18:09:32.374Z,3.28
2022-08-01T18:12:02.066Z,3.30
2022-08-01T18:14:39.965Z,2.97
2022-08-01T18:17:08.681Z,3.17
2022-08-01T18:19:38.822Z,3.22
2022-08-01T18:22:05.820Z,3.00
2022-08-01T18:24:46.168Z,2.63
2022-08-01T18:27:12.804Z,3.15
2022-08-01T18:29:47.168Z,2.90
2022-08-01T18:32:15.391Z,2.85
2022-08-01T18:34:41.964Z,3.05
2022-08-01T18:37:10.125Z,2.97
2022-08-01T18:39:39.546Z,2.75
2022-08-01T18:42:06.287Z,2.90
2022-08-01T18:44:32.993Z,2.80
2022-08-01T18:46:59.562Z,2.70
2022-08-01T18:49:26.294Z,3.03
2022-08-01T18:51:54.127Z,3.17
2022-08-01T18:54:20.958Z,3.28
2022-08-01T18:56:47.683Z,3.05
2022-08-01T18:59:14.608Z,3.30
2022-08-01T19:01:41.346Z,3.42
2022-08-01T19:04:08.622Z,3.33
2022-08-01T19:06:35.645Z,3.40
2022-08-01T19:09:03.448Z,3.42
2022-08-01T19:11:31.129Z,3.55
2022-08-01T19:13:58.221Z,3.58
2022-08-01T19:16:26.267Z,3.78
2022-08-01T19:18:53.139Z,3.45
2022-08-01T19:21:22.253Z,3.65
2022-08-01T19:24:07.804Z,3.95
2022-08-01T19:26:35.971Z,3.80
2022-08-01T19:29:12.375Z,4.03
2022-08-01T19:31:44.385Z,3.42
2022-08-01T19:34:16.842Z,3.80
2022-08-01T19:36:47.410Z,3.70
2022-08-01T19:39:16.690Z,3.42
2022-08-01T19:41:45.548Z,3.92
2022-08-01T19:44:15.406Z,3.55
2022-08-01T19:46:43.305Z,3.58
2022-08-01T19:49:15.414Z,4.15
2022-08-01T19:51:59.428Z,3.63
2022-08-01T19:54:32.011Z,4.32
2022-08-01T19:57:01.680Z,3.88
2022-08-01T19:59:32.594Z,4.00
2022-08-01T20:02:00.025Z,4.10
2022-08-01T20:04:27.629Z,3.97
2022-08-01T20:06:54.521Z,4.07
2022-08-01T20:09:21.872Z,3.40
2022-08-01T20:11:50.816Z,3.72
2022-08-01T20:14:19.850Z,3.50
2022-08-01T20:16:47.363Z,3.67
2022-08-01T20:19:14.803Z,3.78
2022-08-01T20:22:02.595Z,4.13
2022-08-01T20:24:36.358Z,3.60
2022-08-01T20:27:07.476Z,3.50
2022-08-01T20:29:36.279Z,3.00
2022-08-01T20:32:03.405Z,3.70
2022-08-01T20:34:37.087Z,4.05
2022-08-01T20:37:12.566Z,3.60
2022-08-01T20:39:43.245Z,3.60
2022-08-01T20:42:11.016Z,3.28
2022-08-01T20:44:38.605Z,3.47
2022-08-01T20:47:05.455Z,3.50
2022-08-01T20:49:32.839Z,3.30
2022-08-01T20:52:00.812Z,3.50
2022-08-01T20:54:38.052Z,3.65
2022-08-01T20:57:09.158Z,3.67
2022-08-01T20:59:55.304Z,3.60
2022-08-01T21:02:23.603Z,3.35
2022-08-01T21:04:53.748Z,3.15
2022-08-01T21:07:24.906Z,3.28
2022-08-01T21:10:15.218Z,3.58
2022-08-01T21:13:06.092Z,3.40
2022-08-01T21:15:39.771Z,3.22
2022-08-01T21:18:33.615Z,3.40
2022-08-01T21:21:03.706Z,3.58
2022-08-01T21:23:45.381Z,2.70
2022-08-01T21:26:13.235Z,3.10
2022-08-01T21:28:41.036Z,2.88
2022-08-01T21:31:21.816Z,3.30
2022-08-01T21:34:02.402Z,2.97
2022-08-01T21:36:34.113Z,3.50
2022-08-01T21:39:02.338Z,3.10
2022-08-01T21:42:03.390Z,3.00
2022-08-01T21:44:18.527Z,3.50
2022-08-01T21:46:46.999Z,3.13
2022-08-01T21:49:13.652Z,2.67
2022-08-01T21:51:52.024Z,2.97
2022-08-01T21:54:28.930Z,2.85
2022-08-01T21:57:06.982Z,3.00
2022-08-01T21:59:52.619Z,2.72
2022-08-01T22:02:44.208Z,3.88
2022-08-01T22:05:12.634Z,3.13
2022-08-01T22:07:45.898Z,2.78
2022-08-01T22:10:16.630Z,2.80
2022-08-01T22:12:44.563Z,3.08
2022-08-01T22:15:12.291Z,2.92
2022-08-01T22:17:39.964Z,3.10
2022-08-01T22:20:07.812Z,2.95
2022-08-01T22:22:51.408Z,2.75
2022-08-01T22:25:20.863Z,2.80
2022-08-01T22:28:06.171Z,2.92
2022-08-01T22:30:38.342Z,2.60
2022-08-01T22:33:15.474Z,2.75
2022-08-01T22:35:45.494Z,2.30
2022-08-01T22:38:12.289Z,2.50
2022-08-01T22:40:44.742Z,2.33
2022-08-01T22:43:25.321Z,2.20
2022-08-01T22:46:10.483Z,2.88
2022-08-01T22:48:46.427Z,2.75
2022-08-01T22:51:39.989Z,2.60
2022-08-01T22:54:11.347Z,2.60
2022-08-01T22:56:42.743Z,2.72
2022-08-01T22:59:15.771Z,2.40
2022-08-01T23:01:47.508Z,2.30
2022-08-01T23:04:37.020Z,2.67
2022-08-01T23:07:06.656Z,2.70
2022-08-01T23:09:53.324Z,2.60
2022-08-01T23:12:24.207Z,2.72
2022-08-01T23:14:53.576Z,2.85
2022-08-01T23:17:26.783Z,2.88
2022-08-01T23:20:01.372Z,2.72
2022-08-01T23:22:31.329Z,3.70
2022-08-01T23:25:03.959Z,3.37
2022-08-01T23:27:51.340Z,3.20
2022-08-01T23:30:32.004Z,2.73
2022-08-01T23:32:59.191Z,2.73
2022-08-01T23:35:26.285Z,2.97
2022-08-01T23:37:53.586Z,2.97
2022-08-01T23:40:20.858Z,2.90
2022-08-01T23:42:53.302Z,3.20
2022-08-01T23:45:20.512Z,3.00
2022-08-01T23:47:47.314Z,3.20
2022-08-01T23:50:14.002Z,3.33
2022-08-01T23:52:42.587Z,3.03
2022-08-01T23:55:16.286Z,3.13
2022-08-01T23:57:43.414Z,3.23
